sensor_id;sensor_type;location;lat;lon;timestamp;P1;durP1;ratioP1;P2;durP2;ratioP2
74967;SDS011;63523;51.880;12.630;2024-02-14T00:01:47;7.75;;;2.67;;
74967;SDS011;63523;51.880;12.630;2024-02-14T00:04:13;7.63;;;2.73;;
74967;SDS011;63523;51.880;12.630;2024-02-14T00:06:39;8.02;;;2.78;;
74967;SDS011;63523;51.880;12.630;2024-02-14T00:09:05;8.43;;;2.90;;
74967;SDS011;63523;51.880;12.630;2024-02-14T00:11:31;6.32;;;2.35;;
74967;SDS011;63523;51.880;12.630;2024-02-14T00:13:57;7.57;;;2.73;;
74967;SDS011;63523;51.880;12.630;2024-02-14T00:16:22;7.78;;;2.50;;
74967;SDS011;63523;51.880;12.630;2024-02-14T00:18:47;7.53;;;2.60;;
74967;SDS011;63523;51.880;12.630;2024-02-14T00:21:13;7.83;;;3.00;;
74967;SDS011;63523;51.880;12.630;2024-02-14T00:23:38;8.27;;;2.80;;
74967;SDS011;63523;51.880;12.630;2024-02-14T00:26:03;7.53;;;3.10;;
74967;SDS011;63523;51.880;12.630;2024-02-14T00:28:28;7.70;;;2.87;;
74967;SDS011;63523;51.880;12.630;2024-02-14T00:30:54;9.53;;;2.87;;
74967;SDS011;63523;51.880;12.630;2024-02-14T00:33:19;7.27;;;2.87;;
74967;SDS011;63523;51.880;12.630;2024-02-14T00:35:46;8.05;;;3.28;;
74967;SDS011;63523;51.880;12.630;2024-02-14T00:38:11;8.13;;;2.87;;
74967;SDS011;63523;51.880;12.630;2024-02-14T00:40:36;8.27;;;2.80;;
74967;SDS011;63523;51.880;12.630;2024-02-14T00:43:02;8.27;;;3.20;;
74967;SDS011;63523;51.880;12.630;2024-02-14T00:45:27;8.43;;;3.50;;
74967;SDS011;63523;51.880;12.630;2024-02-14T00:47:52;8.43;;;2.77;;
74967;SDS011;63523;51.880;12.630;2024-02-14T00:50:17;7.33;;;2.93;;
74967;SDS011;63523;51.880;12.630;2024-02-14T00:52:43;9.07;;;3.50;;
74967;SDS011;63523;51.880;12.630;2024-02-14T00:55:08;7.53;;;2.50;;
74967;SDS011;63523;51.880;12.630;2024-02-14T00:57:34;7.00;;;2.60;;
74967;SDS011;63523;51.880;12.630;2024-02-14T00:59:59;7.30;;;2.83;;
74967;SDS011;63523;51.880;12.630;2024-02-14T01:02:24;6.80;;;2.37;;
74967;SDS011;63523;51.880;12.630;2024-02-14T01:04:51;7.18;;;2.67;;
74967;SDS011;63523;51.880;12.630;2024-02-14T01:07:16;9.80;;;2.77;;
74967;SDS011;63523;51.880;12.630;2024-02-14T01:09:41;6.90;;;2.53;;
74967;SDS011;63523;51.880;12.630;2024-02-14T01:12:07;7.13;;;2.40;;
74967;SDS011;63523;51.880;12.630;2024-02-14T01:14:32;5.67;;;2.13;;
74967;SDS011;63523;51.880;12.630;2024-02-14T01:16:57;6.40;;;2.70;;
74967;SDS011;63523;51.880;12.630;2024-02-14T01:19:23;6.20;;;2.07;;
74967;SDS011;63523;51.880;12.630;2024-02-14T01:21:53;10.23;;;2.60;;
74967;SDS011;63523;51.880;12.630;2024-02-14T01:24:19;6.30;;;2.20;;
74967;SDS011;63523;51.880;12.630;2024-02-14T01:26:44;6.33;;;2.53;;
74967;SDS011;63523;51.880;12.630;2024-02-14T01:29:09;6.73;;;2.60;;
74967;SDS011;63523;51.880;12.630;2024-02-14T01:31:35;6.70;;;2.70;;
74967;SDS011;63523;51.880;12.630;2024-02-14T01:34:00;6.90;;;2.30;;
74967;SDS011;63523;51.880;12.630;2024-02-14T01:36:29;7.40;;;2.80;;
74967;SDS011;63523;51.880;12.630;2024-02-14T01:38:55;6.93;;;2.55;;
74967;SDS011;63523;51.880;12.630;2024-02-14T01:41:20;6.23;;;2.50;;
74967;SDS011;63523;51.880;12.630;2024-02-14T01:43:46;8.17;;;2.33;;
74967;SDS011;63523;51.880;12.630;2024-02-14T01:46:12;6.57;;;2.38;;
74967;SDS011;63523;51.880;12.630;2024-02-14T01:48:38;7.03;;;2.78;;
74967;SDS011;63523;51.880;12.630;2024-02-14T01:51:04;6.93;;;2.80;;
74967;SDS011;63523;51.880;12.630;2024-02-14T01:53:33;8.73;;;2.77;;
74967;SDS011;63523;51.880;12.630;2024-02-14T01:56:01;7.72;;;2.78;;
74967;SDS011;63523;51.880;12.630;2024-02-14T01:58:27;7.95;;;2.70;;
74967;SDS011;63523;51.880;12.630;2024-02-14T02:00:54;6.93;;;2.40;;
74967;SDS011;63523;51.880;12.630;2024-02-14T02:03:23;7.75;;;2.72;;
74967;SDS011;63523;51.880;12.630;2024-02-14T02:05:50;8.40;;;2.60;;
74967;SDS011;63523;51.880;12.630;2024-02-14T02:08:16;9.35;;;2.67;;
74967;SDS011;63523;51.880;12.630;2024-02-14T02:10:42;6.93;;;2.40;;
74967;SDS011;63523;51.880;12.630;2024-02-14T02:13:07;6.13;;;2.37;;
74967;SDS011;63523;51.880;12.630;2024-02-14T02:15:34;8.48;;;2.92;;
74967;SDS011;63523;51.880;12.630;2024-02-14T02:17:59;7.17;;;2.83;;
74967;SDS011;63523;51.880;12.630;2024-02-14T02:20:25;6.65;;;2.85;;
74967;SDS011;63523;51.880;12.630;2024-02-14T02:22:52;7.35;;;2.60;;
74967;SDS011;63523;51.880;12.630;2024-02-14T02:25:18;6.10;;;2.40;;
74967;SDS011;63523;51.880;12.630;2024-02-14T02:27:48;7.97;;;2.80;;
74967;SDS011;63523;51.880;12.630;2024-02-14T02:30:13;8.13;;;2.83;;
74967;SDS011;63523;51.880;12.630;2024-02-14T02:32:39;7.43;;;2.70;;
74967;SDS011;63523;51.880;12.630;2024-02-14T02:35:04;7.80;;;3.03;;
74967;SDS011;63523;51.880;12.630;2024-02-14T02:37:29;6.15;;;2.30;;
74967;SDS011;63523;51.880;12.630;2024-02-14T02:39:56;6.20;;;2.20;;
74967;SDS011;63523;51.880;12.630;2024-02-14T02:42:21;7.05;;;2.35;;
74967;SDS011;63523;51.880;12.630;2024-02-14T02:44:48;6.67;;;2.33;;
74967;SDS011;63523;51.880;12.630;2024-02-14T02:47:15;7.35;;;2.47;;
74967;SDS011;63523;51.880;12.630;2024-02-14T02:49:41;6.28;;;2.45;;
74967;SDS011;63523;51.880;12.630;2024-02-14T02:52:09;7.30;;;2.70;;
74967;SDS011;63523;51.880;12.630;2024-02-14T02:54:34;7.77;;;2.50;;
74967;SDS011;63523;51.880;12.630;2024-02-14T02:57:00;9.25;;;2.47;;
74967;SDS011;63523;51.880;12.630;2024-02-14T02:59:28;6.45;;;2.58;;
74967;SDS011;63523;51.880;12.630;2024-02-14T03:01:54;6.30;;;2.37;;
74967;SDS011;63523;51.880;12.630;2024-02-14T03:04:20;5.97;;;2.28;;
74967;SDS011;63523;51.880;12.630;2024-02-14T03:06:45;6.83;;;2.60;;
74967;SDS011;63523;51.880;12.630;2024-02-14T03:09:11;8.13;;;2.60;;
74967;SDS011;63523;51.880;12.630;2024-02-14T03:11:37;7.75;;;3.00;;
74967;SDS011;63523;51.880;12.630;2024-02-14T03:14:03;8.48;;;2.97;;
74967;SDS011;63523;51.880;12.630;2024-02-14T03:16:28;6.70;;;2.57;;
74967;SDS011;63523;51.880;12.630;2024-02-14T03:18:54;8.05;;;2.63;;
74967;SDS011;63523;51.880;12.630;2024-02-14T03:21:19;7.77;;;2.67;;
74967;SDS011;63523;51.880;12.630;2024-02-14T03:23:45;8.27;;;2.83;;
74967;SDS011;63523;51.880;12.630;2024-02-14T03:26:10;9.37;;;2.50;;
74967;SDS011;63523;51.880;12.630;2024-02-14T03:28:36;7.73;;;2.60;;
74967;SDS011;63523;51.880;12.630;2024-02-14T03:31:01;9.17;;;2.90;;
74967;SDS011;63523;51.880;12.630;2024-02-14T03:33:26;9.50;;;2.60;;
74967;SDS011;63523;51.880;12.630;2024-02-14T03:35:53;8.33;;;3.10;;
74967;SDS011;63523;51.880;12.630;2024-02-14T03:38:25;6.47;;;2.85;;
74967;SDS011;63523;51.880;12.630;2024-02-14T03:40:54;6.80;;;2.73;;
74967;SDS011;63523;51.880;12.630;2024-02-14T03:43:19;7.05;;;2.92;;
74967;SDS011;63523;51.880;12.630;2024-02-14T03:45:46;7.88;;;2.78;;
74967;SDS011;63523;51.880;12.630;2024-02-14T03:48:12;6.93;;;2.53;;
74967;SDS011;63523;51.880;12.630;2024-02-14T03:50:38;8.60;;;3.00;;
74967;SDS011;63523;51.880;12.630;2024-02-14T03:53:04;8.20;;;2.70;;
74967;SDS011;63523;51.880;12.630;2024-02-14T03:55:29;8.80;;;3.10;;
74967;SDS011;63523;51.880;12.630;2024-02-14T03:57:55;7.47;;;3.03;;
74967;SDS011;63523;51.880;12.630;2024-02-14T04:00:20;6.07;;;2.70;;
74967;SDS011;63523;51.880;12.630;2024-02-14T04:02:47;6.73;;;2.60;;
74967;SDS011;63523;51.880;12.630;2024-02-14T04:05:14;6.65;;;2.65;;
74967;SDS011;63523;51.880;12.630;2024-02-14T04:07:39;8.38;;;2.80;;
74967;SDS011;63523;51.880;12.630;2024-02-14T04:10:05;7.47;;;2.57;;
74967;SDS011;63523;51.880;12.630;2024-02-14T04:12:31;7.57;;;2.55;;
74967;SDS011;63523;51.880;12.630;2024-02-14T04:14:57;8.77;;;2.60;;
74967;SDS011;63523;51.880;12.630;2024-02-14T04:17:22;8.07;;;2.70;;
74967;SDS011;63523;51.880;12.630;2024-02-14T04:19:48;9.43;;;2.67;;
74967;SDS011;63523;51.880;12.630;2024-02-14T04:22:14;7.87;;;2.27;;
74967;SDS011;63523;51.880;12.630;2024-02-14T04:24:39;6.87;;;2.70;;
74967;SDS011;63523;51.880;12.630;2024-02-14T04:27:04;7.47;;;2.17;;
74967;SDS011;63523;51.880;12.630;2024-02-14T04:29:30;7.00;;;2.53;;
74967;SDS011;63523;51.880;12.630;2024-02-14T04:31:57;8.18;;;2.35;;
74967;SDS011;63523;51.880;12.630;2024-02-14T04:34:23;6.93;;;2.67;;
74967;SDS011;63523;51.880;12.630;2024-02-14T04:36:48;6.00;;;2.30;;
74967;SDS011;63523;51.880;12.630;2024-02-14T04:39:13;8.45;;;2.00;;
74967;SDS011;63523;51.880;12.630;2024-02-14T04:41:39;6.30;;;2.17;;
74967;SDS011;63523;51.880;12.630;2024-02-14T04:44:04;10.13;;;2.70;;
74967;SDS011;63523;51.880;12.630;2024-02-14T04:46:33;6.63;;;2.40;;
74967;SDS011;63523;51.880;12.630;2024-02-14T04:49:00;7.43;;;2.37;;
74967;SDS011;63523;51.880;12.630;2024-02-14T04:51:27;6.20;;;2.25;;
74967;SDS011;63523;51.880;12.630;2024-02-14T04:53:53;7.88;;;2.60;;
74967;SDS011;63523;51.880;12.630;2024-02-14T04:56:19;6.53;;;2.10;;
74967;SDS011;63523;51.880;12.630;2024-02-14T04:58:44;6.97;;;2.70;;
74967;SDS011;63523;51.880;12.630;2024-02-14T05:01:09;6.33;;;2.23;;
74967;SDS011;63523;51.880;12.630;2024-02-14T05:03:35;8.60;;;2.10;;
74967;SDS011;63523;51.880;12.630;2024-02-14T05:06:01;6.72;;;2.15;;
74967;SDS011;63523;51.880;12.630;2024-02-14T05:08:27;5.97;;;1.95;;
74967;SDS011;63523;51.880;12.630;2024-02-14T05:10:53;8.07;;;2.30;;
74967;SDS011;63523;51.880;12.630;2024-02-14T05:13:18;8.17;;;2.43;;
74967;SDS011;63523;51.880;12.630;2024-02-14T05:15:43;7.53;;;2.30;;
74967;SDS011;63523;51.880;12.630;2024-02-14T05:18:09;6.93;;;2.27;;
74967;SDS011;63523;51.880;12.630;2024-02-14T05:20:34;6.77;;;2.30;;
74967;SDS011;63523;51.880;12.630;2024-02-14T05:22:59;6.77;;;2.33;;
74967;SDS011;63523;51.880;12.630;2024-02-14T05:25:25;6.80;;;2.10;;
74967;SDS011;63523;51.880;12.630;2024-02-14T05:27:52;8.63;;;2.40;;
74967;SDS011;63523;51.880;12.630;2024-02-14T05:30:18;9.87;;;2.30;;
74967;SDS011;63523;51.880;12.630;2024-02-14T05:32:43;10.47;;;2.23;;
74967;SDS011;63523;51.880;12.630;2024-02-14T05:35:08;7.50;;;2.30;;
74967;SDS011;63523;51.880;12.630;2024-02-14T05:37:34;6.90;;;2.13;;
74967;SDS011;63523;51.880;12.630;2024-02-14T05:40:01;7.18;;;2.15;;
74967;SDS011;63523;51.880;12.630;2024-02-14T05:42:27;8.57;;;2.03;;
74967;SDS011;63523;51.880;12.630;2024-02-14T05:44:52;6.20;;;1.90;;
74967;SDS011;63523;51.880;12.630;2024-02-14T05:47:18;6.63;;;1.73;;
74967;SDS011;63523;51.880;12.630;2024-02-14T05:49:43;4.97;;;1.30;;
74967;SDS011;63523;51.880;12.630;2024-02-14T05:52:09;5.37;;;1.50;;
74967;SDS011;63523;51.880;12.630;2024-02-14T05:54:34;5.93;;;1.70;;
74967;SDS011;63523;51.880;12.630;2024-02-14T05:57:00;8.02;;;1.67;;
74967;SDS011;63523;51.880;12.630;2024-02-14T05:59:29;6.22;;;1.58;;
74967;SDS011;63523;51.880;12.630;2024-02-14T06:01:55;5.15;;;1.20;;
74967;SDS011;63523;51.880;12.630;2024-02-14T06:04:20;4.17;;;1.13;;
74967;SDS011;63523;51.880;12.630;2024-02-14T06:06:46;6.30;;;1.20;;
74967;SDS011;63523;51.880;12.630;2024-02-14T06:09:11;6.17;;;1.20;;
74967;SDS011;63523;51.880;12.630;2024-02-14T06:11:36;6.93;;;1.60;;
74967;SDS011;63523;51.880;12.630;2024-02-14T06:14:04;5.47;;;1.70;;
74967;SDS011;63523;51.880;12.630;2024-02-14T06:16:30;7.30;;;1.08;;
74967;SDS011;63523;51.880;12.630;2024-02-14T06:18:56;6.07;;;0.93;;
74967;SDS011;63523;51.880;12.630;2024-02-14T06:21:21;4.60;;;1.07;;
74967;SDS011;63523;51.880;12.630;2024-02-14T06:23:46;5.60;;;0.93;;
74967;SDS011;63523;51.880;12.630;2024-02-14T06:26:12;8.17;;;0.60;;
74967;SDS011;63523;51.880;12.630;2024-02-14T06:28:37;2.47;;;0.40;;
74967;SDS011;63523;51.880;12.630;2024-02-14T06:31:03;2.97;;;0.50;;
74967;SDS011;63523;51.880;12.630;2024-02-14T06:33:29;3.87;;;0.47;;
74967;SDS011;63523;51.880;12.630;2024-02-14T06:35:54;3.57;;;0.37;;
74967;SDS011;63523;51.880;12.630;2024-02-14T06:38:19;5.67;;;0.60;;
74967;SDS011;63523;51.880;12.630;2024-02-14T06:40:44;2.90;;;0.40;;
74967;SDS011;63523;51.880;12.630;2024-02-14T06:43:10;2.63;;;0.40;;
74967;SDS011;63523;51.880;12.630;2024-02-14T06:45:35;3.30;;;0.40;;
74967;SDS011;63523;51.880;12.630;2024-02-14T06:48:00;3.58;;;0.93;;
74967;SDS011;63523;51.880;12.630;2024-02-14T06:50:26;5.17;;;0.67;;
74967;SDS011;63523;51.880;12.630;2024-02-14T06:52:51;4.47;;;0.60;;
74967;SDS011;63523;51.880;12.630;2024-02-14T06:55:16;3.50;;;0.87;;
74967;SDS011;63523;51.880;12.630;2024-02-14T06:57:42;5.07;;;0.70;;
74967;SDS011;63523;51.880;12.630;2024-02-14T07:00:07;4.70;;;0.70;;
74967;SDS011;63523;51.880;12.630;2024-02-14T07:02:33;3.72;;;0.80;;
74967;SDS011;63523;51.880;12.630;2024-02-14T07:04:59;4.73;;;0.70;;
74967;SDS011;63523;51.880;12.630;2024-02-14T07:07:24;2.63;;;0.53;;
74967;SDS011;63523;51.880;12.630;2024-02-14T07:09:50;4.13;;;0.50;;
74967;SDS011;63523;51.880;12.630;2024-02-14T07:12:16;3.90;;;0.80;;
74967;SDS011;63523;51.880;12.630;2024-02-14T07:14:41;3.73;;;0.70;;
74967;SDS011;63523;51.880;12.630;2024-02-14T07:17:06;2.88;;;0.47;;
74967;SDS011;63523;51.880;12.630;2024-02-14T07:19:32;5.47;;;0.77;;
74967;SDS011;63523;51.880;12.630;2024-02-14T07:21:57;16.43;;;5.67;;
74967;SDS011;63523;51.880;12.630;2024-02-14T07:24:22;6.57;;;2.13;;
74967;SDS011;63523;51.880;12.630;2024-02-14T07:26:47;4.50;;;1.73;;
74967;SDS011;63523;51.880;12.630;2024-02-14T07:29:13;24.53;;;10.43;;
74967;SDS011;63523;51.880;12.630;2024-02-14T07:31:38;36.07;;;16.83;;
74967;SDS011;63523;51.880;12.630;2024-02-14T07:34:03;17.07;;;8.10;;
74967;SDS011;63523;51.880;12.630;2024-02-14T07:36:29;11.90;;;5.00;;
74967;SDS011;63523;51.880;12.630;2024-02-14T07:38:54;15.15;;;6.43;;
74967;SDS011;63523;51.880;12.630;2024-02-14T07:41:20;23.67;;;10.67;;
74967;SDS011;63523;51.880;12.630;2024-02-14T07:43:45;98.23;;;35.67;;
74967;SDS011;63523;51.880;12.630;2024-02-14T07:46:11;58.13;;;23.45;;
74967;SDS011;63523;51.880;12.630;2024-02-14T07:48:37;17.17;;;7.40;;
74967;SDS011;63523;51.880;12.630;2024-02-14T07:51:02;5.32;;;1.00;;
74967;SDS011;63523;51.880;12.630;2024-02-14T07:53:32;5.72;;;1.30;;
74967;SDS011;63523;51.880;12.630;2024-02-14T07:55:57;7.03;;;1.93;;
74967;SDS011;63523;51.880;12.630;2024-02-14T07:58:22;7.70;;;2.60;;
74967;SDS011;63523;51.880;12.630;2024-02-14T08:00:48;6.77;;;2.50;;
74967;SDS011;63523;51.880;12.630;2024-02-14T08:03:13;3.53;;;0.60;;
74967;SDS011;63523;51.880;12.630;2024-02-14T08:05:39;2.43;;;0.40;;
74967;SDS011;63523;51.880;12.630;2024-02-14T08:08:06;3.00;;;0.50;;
74967;SDS011;63523;51.880;12.630;2024-02-14T08:10:31;3.53;;;0.30;;
74967;SDS011;63523;51.880;12.630;2024-02-14T08:12:57;2.83;;;0.50;;
74967;SDS011;63523;51.880;12.630;2024-02-14T08:15:23;4.67;;;1.43;;
74967;SDS011;63523;51.880;12.630;2024-02-14T08:17:49;4.50;;;1.00;;
74967;SDS011;63523;51.880;12.630;2024-02-14T08:20:14;2.73;;;0.50;;
74967;SDS011;63523;51.880;12.630;2024-02-14T08:22:39;3.70;;;0.50;;
74967;SDS011;63523;51.880;12.630;2024-02-14T08:25:04;2.53;;;0.50;;
74967;SDS011;63523;51.880;12.630;2024-02-14T08:27:30;2.60;;;0.40;;
74967;SDS011;63523;51.880;12.630;2024-02-14T08:29:56;5.82;;;0.50;;
74967;SDS011;63523;51.880;12.630;2024-02-14T08:32:22;3.57;;;0.63;;
74967;SDS011;63523;51.880;12.630;2024-02-14T08:34:47;4.15;;;0.50;;
74967;SDS011;63523;51.880;12.630;2024-02-14T08:37:13;3.10;;;0.57;;
74967;SDS011;63523;51.880;12.630;2024-02-14T08:39:38;4.53;;;0.63;;
74967;SDS011;63523;51.880;12.630;2024-02-14T08:42:03;3.57;;;0.50;;
74967;SDS011;63523;51.880;12.630;2024-02-14T08:44:32;2.75;;;0.50;;
74967;SDS011;63523;51.880;12.630;2024-02-14T08:46:59;3.53;;;0.68;;
74967;SDS011;63523;51.880;12.630;2024-02-14T08:49:24;2.93;;;0.40;;
74967;SDS011;63523;51.880;12.630;2024-02-14T08:51:49;4.53;;;0.60;;
74967;SDS011;63523;51.880;12.630;2024-02-14T08:54:15;3.10;;;0.50;;
74967;SDS011;63523;51.880;12.630;2024-02-14T08:56:41;3.95;;;0.82;;
74967;SDS011;63523;51.880;12.630;2024-02-14T08:59:06;6.07;;;0.87;;
74967;SDS011;63523;51.880;12.630;2024-02-14T09:01:31;3.00;;;0.73;;
74967;SDS011;63523;51.880;12.630;2024-02-14T09:03:57;5.22;;;0.60;;
74967;SDS011;63523;51.880;12.630;2024-02-14T09:06:23;3.47;;;0.90;;
74967;SDS011;63523;51.880;12.630;2024-02-14T09:08:49;4.15;;;0.70;;
74967;SDS011;63523;51.880;12.630;2024-02-14T09:11:21;3.35;;;0.60;;
74967;SDS011;63523;51.880;12.630;2024-02-14T09:13:47;6.18;;;0.70;;
74967;SDS011;63523;51.880;12.630;2024-02-14T09:16:14;4.87;;;0.80;;
74967;SDS011;63523;51.880;12.630;2024-02-14T09:18:40;4.88;;;0.93;;
74967;SDS011;63523;51.880;12.630;2024-02-14T09:21:05;3.63;;;0.57;;
74967;SDS011;63523;51.880;12.630;2024-02-14T09:23:31;3.10;;;0.65;;
74967;SDS011;63523;51.880;12.630;2024-02-14T09:25:57;3.33;;;0.57;;
74967;SDS011;63523;51.880;12.630;2024-02-14T09:28:22;3.43;;;0.50;;
74967;SDS011;63523;51.880;12.630;2024-02-14T09:30:48;9.60;;;2.20;;
74967;SDS011;63523;51.880;12.630;2024-02-14T09:33:13;11.13;;;2.80;;
74967;SDS011;63523;51.880;12.630;2024-02-14T09:35:38;6.37;;;1.17;;
74967;SDS011;63523;51.880;12.630;2024-02-14T09:38:09;6.30;;;1.35;;
74967;SDS011;63523;51.880;12.630;2024-02-14T09:40:34;3.03;;;0.67;;
74967;SDS011;63523;51.880;12.630;2024-02-14T09:43:00;3.07;;;0.60;;
74967;SDS011;63523;51.880;12.630;2024-02-14T09:45:30;4.03;;;0.70;;
74967;SDS011;63523;51.880;12.630;2024-02-14T09:47:58;4.45;;;0.77;;
74967;SDS011;63523;51.880;12.630;2024-02-14T09:50:24;3.17;;;0.50;;
74967;SDS011;63523;51.880;12.630;2024-02-14T09:52:49;4.80;;;0.70;;
74967;SDS011;63523;51.880;12.630;2024-02-14T09:55:15;3.60;;;0.50;;
74967;SDS011;63523;51.880;12.630;2024-02-14T09:57:42;3.88;;;0.40;;
74967;SDS011;63523;51.880;12.630;2024-02-14T10:00:09;6.57;;;0.80;;
74967;SDS011;63523;51.880;12.630;2024-02-14T10:02:35;3.25;;;0.60;;
74967;SDS011;63523;51.880;12.630;2024-02-14T10:05:01;3.67;;;0.57;;
74967;SDS011;63523;51.880;12.630;2024-02-14T10:07:26;4.10;;;0.80;;
74967;SDS011;63523;51.880;12.630;2024-02-14T10:09:52;4.80;;;0.83;;
74967;SDS011;63523;51.880;12.630;2024-02-14T10:12:18;4.82;;;0.60;;
74967;SDS011;63523;51.880;12.630;2024-02-14T10:14:44;3.17;;;0.83;;
74967;SDS011;63523;51.880;12.630;2024-02-14T10:17:16;2.90;;;0.85;;
74967;SDS011;63523;51.880;12.630;2024-02-14T10:19:43;4.03;;;0.90;;
74967;SDS011;63523;51.880;12.630;2024-02-14T10:22:08;4.13;;;0.80;;
74967;SDS011;63523;51.880;12.630;2024-02-14T10:24:33;4.40;;;1.17;;
74967;SDS011;63523;51.880;12.630;2024-02-14T10:26:59;6.93;;;1.77;;
74967;SDS011;63523;51.880;12.630;2024-02-14T10:29:24;8.10;;;2.20;;
74967;SDS011;63523;51.880;12.630;2024-02-14T10:31:50;9.65;;;3.25;;
74967;SDS011;63523;51.880;12.630;2024-02-14T10:34:15;8.60;;;2.00;;
74967;SDS011;63523;51.880;12.630;2024-02-14T10:36:42;5.53;;;1.40;;
74967;SDS011;63523;51.880;12.630;2024-02-14T10:39:09;5.05;;;0.90;;
74967;SDS011;63523;51.880;12.630;2024-02-14T10:41:36;5.03;;;0.80;;
74967;SDS011;63523;51.880;12.630;2024-02-14T10:44:04;5.85;;;0.90;;
74967;SDS011;63523;51.880;12.630;2024-02-14T10:46:31;4.35;;;0.98;;
74967;SDS011;63523;51.880;12.630;2024-02-14T10:49:01;3.95;;;1.00;;
74967;SDS011;63523;51.880;12.630;2024-02-14T10:51:29;4.37;;;1.03;;
74967;SDS011;63523;51.880;12.630;2024-02-14T10:53:56;4.32;;;1.15;;
74967;SDS011;63523;51.880;12.630;2024-02-14T10:56:24;5.03;;;1.08;;
74967;SDS011;63523;51.880;12.630;2024-02-14T10:58:52;6.57;;;0.98;;
74967;SDS011;63523;51.880;12.630;2024-02-14T11:01:22;5.03;;;1.00;;
74967;SDS011;63523;51.880;12.630;2024-02-14T11:03:49;3.53;;;1.00;;
74967;SDS011;63523;51.880;12.630;2024-02-14T11:06:16;4.40;;;1.50;;
74967;SDS011;63523;51.880;12.630;2024-02-14T11:08:55;5.22;;;1.33;;
74967;SDS011;63523;51.880;12.630;2024-02-14T11:11:28;4.10;;;1.17;;
74967;SDS011;63523;51.880;12.630;2024-02-14T11:13:54;5.83;;;1.30;;
74967;SDS011;63523;51.880;12.630;2024-02-14T11:16:26;16.90;;;4.00;;
74967;SDS011;63523;51.880;12.630;2024-02-14T11:18:53;13.52;;;4.28;;
74967;SDS011;63523;51.880;12.630;2024-02-14T11:21:30;6.35;;;1.67;;
74967;SDS011;63523;51.880;12.630;2024-02-14T11:23:55;6.03;;;1.53;;
74967;SDS011;63523;51.880;12.630;2024-02-14T11:26:21;8.63;;;1.50;;
74967;SDS011;63523;51.880;12.630;2024-02-14T11:28:48;5.47;;;1.50;;
74967;SDS011;63523;51.880;12.630;2024-02-14T11:31:16;5.28;;;1.25;;
74967;SDS011;63523;51.880;12.630;2024-02-14T11:33:42;5.72;;;1.50;;
74967;SDS011;63523;51.880;12.630;2024-02-14T11:36:10;7.93;;;1.50;;
74967;SDS011;63523;51.880;12.630;2024-02-14T11:38:36;7.03;;;1.92;;
74967;SDS011;63523;51.880;12.630;2024-02-14T11:41:01;5.63;;;1.80;;
74967;SDS011;63523;51.880;12.630;2024-02-14T11:43:28;8.15;;;2.30;;
74967;SDS011;63523;51.880;12.630;2024-02-14T11:45:54;11.37;;;2.47;;
74967;SDS011;63523;51.880;12.630;2024-02-14T11:48:19;8.50;;;2.73;;
74967;SDS011;63523;51.880;12.630;2024-02-14T11:50:46;5.93;;;2.00;;
74967;SDS011;63523;51.880;12.630;2024-02-14T11:53:12;5.77;;;1.80;;
74967;SDS011;63523;51.880;12.630;2024-02-14T11:55:39;7.43;;;2.38;;
74967;SDS011;63523;51.880;12.630;2024-02-14T11:58:08;6.10;;;1.77;;
74967;SDS011;63523;51.880;12.630;2024-02-14T12:00:38;5.88;;;1.85;;
74967;SDS011;63523;51.880;12.630;2024-02-14T12:03:10;4.82;;;1.70;;
74967;SDS011;63523;51.880;12.630;2024-02-14T12:05:37;6.93;;;1.83;;
74967;SDS011;63523;51.880;12.630;2024-02-14T12:08:04;4.80;;;1.90;;
74967;SDS011;63523;51.880;12.630;2024-02-14T12:10:31;5.97;;;1.40;;
74967;SDS011;63523;51.880;12.630;2024-02-14T12:12:57;5.97;;;1.80;;
74967;SDS011;63523;51.880;12.630;2024-02-14T12:15:24;4.65;;;1.20;;
74967;SDS011;63523;51.880;12.630;2024-02-14T12:17:51;4.40;;;1.52;;
74967;SDS011;63523;51.880;12.630;2024-02-14T12:20:16;5.43;;;1.50;;
74967;SDS011;63523;51.880;12.630;2024-02-14T12:22:49;4.40;;;1.35;;
74967;SDS011;63523;51.880;12.630;2024-02-14T12:25:15;4.10;;;1.45;;
74967;SDS011;63523;51.880;12.630;2024-02-14T12:27:40;6.10;;;1.30;;
74967;SDS011;63523;51.880;12.630;2024-02-14T12:30:06;6.90;;;1.60;;
74967;SDS011;63523;51.880;12.630;2024-02-14T12:32:32;4.50;;;1.00;;
74967;SDS011;63523;51.880;12.630;2024-02-14T12:34:58;3.63;;;1.00;;
74967;SDS011;63523;51.880;12.630;2024-02-14T12:37:24;5.25;;;1.25;;
74967;SDS011;63523;51.880;12.630;2024-02-14T12:39:50;4.77;;;1.13;;
74967;SDS011;63523;51.880;12.630;2024-02-14T12:42:15;5.50;;;1.60;;
74967;SDS011;63523;51.880;12.630;2024-02-14T12:44:43;3.95;;;1.30;;
74967;SDS011;63523;51.880;12.630;2024-02-14T12:47:08;4.30;;;1.20;;
74967;SDS011;63523;51.880;12.630;2024-02-14T12:49:34;6.07;;;1.30;;
74967;SDS011;63523;51.880;12.630;2024-02-14T12:51:59;4.20;;;1.20;;
74967;SDS011;63523;51.880;12.630;2024-02-14T12:54:24;4.20;;;1.17;;
74967;SDS011;63523;51.880;12.630;2024-02-14T12:56:51;5.80;;;1.40;;
74967;SDS011;63523;51.880;12.630;2024-02-14T12:59:17;4.80;;;1.30;;
74967;SDS011;63523;51.880;12.630;2024-02-14T13:01:43;4.32;;;1.10;;
74967;SDS011;63523;51.880;12.630;2024-02-14T13:04:08;3.77;;;1.00;;
74967;SDS011;63523;51.880;12.630;2024-02-14T13:06:34;5.05;;;1.90;;
74967;SDS011;63523;51.880;12.630;2024-02-14T13:09:00;3.60;;;1.03;;
74967;SDS011;63523;51.880;12.630;2024-02-14T13:11:25;4.50;;;0.93;;
74967;SDS011;63523;51.880;12.630;2024-02-14T13:13:51;4.43;;;1.07;;
74967;SDS011;63523;51.880;12.630;2024-02-14T13:16:16;3.90;;;1.20;;
74967;SDS011;63523;51.880;12.630;2024-02-14T13:18:41;4.07;;;1.00;;
74967;SDS011;63523;51.880;12.630;2024-02-14T13:21:06;4.57;;;1.10;;
74967;SDS011;63523;51.880;12.630;2024-02-14T13:23:32;4.97;;;1.10;;
74967;SDS011;63523;51.880;12.630;2024-02-14T13:25:57;5.70;;;1.60;;
74967;SDS011;63523;51.880;12.630;2024-02-14T13:28:22;4.85;;;1.30;;
74967;SDS011;63523;51.880;12.630;2024-02-14T13:30:47;3.80;;;1.30;;
74967;SDS011;63523;51.880;12.630;2024-02-14T13:33:16;3.77;;;0.80;;
74967;SDS011;63523;51.880;12.630;2024-02-14T13:35:41;3.92;;;0.70;;
74967;SDS011;63523;51.880;12.630;2024-02-14T13:38:07;4.27;;;1.30;;
74967;SDS011;63523;51.880;12.630;2024-02-14T13:40:34;5.00;;;1.00;;
74967;SDS011;63523;51.880;12.630;2024-02-14T13:42:59;3.37;;;0.73;;
74967;SDS011;63523;51.880;12.630;2024-02-14T13:45:24;4.03;;;0.87;;
74967;SDS011;63523;51.880;12.630;2024-02-14T13:47:50;4.43;;;0.70;;
74967;SDS011;63523;51.880;12.630;2024-02-14T13:50:15;4.80;;;0.97;;
74967;SDS011;63523;51.880;12.630;2024-02-14T13:52:41;4.33;;;1.10;;
74967;SDS011;63523;51.880;12.630;2024-02-14T13:55:06;4.57;;;0.70;;
74967;SDS011;63523;51.880;12.630;2024-02-14T13:57:38;3.85;;;0.75;;
74967;SDS011;63523;51.880;12.630;2024-02-14T14:00:04;3.67;;;0.90;;
74967;SDS011;63523;51.880;12.630;2024-02-14T14:02:30;3.72;;;0.88;;
74967;SDS011;63523;51.880;12.630;2024-02-14T14:04:56;4.30;;;0.67;;
74967;SDS011;63523;51.880;12.630;2024-02-14T14:07:21;3.30;;;0.80;;
74967;SDS011;63523;51.880;12.630;2024-02-14T14:09:48;3.53;;;0.90;;
74967;SDS011;63523;51.880;12.630;2024-02-14T14:12:14;3.10;;;0.60;;
74967;SDS011;63523;51.880;12.630;2024-02-14T14:14:39;3.50;;;0.73;;
74967;SDS011;63523;51.880;12.630;2024-02-14T14:17:04;3.10;;;0.63;;
74967;SDS011;63523;51.880;12.630;2024-02-14T14:19:30;3.07;;;0.60;;
74967;SDS011;63523;51.880;12.630;2024-02-14T14:21:55;3.07;;;0.60;;
74967;SDS011;63523;51.880;12.630;2024-02-14T14:24:21;3.07;;;0.80;;
74967;SDS011;63523;51.880;12.630;2024-02-14T14:26:46;3.03;;;0.60;;